Time;durP1;ratioP1;P1;durP2;ratioP2;P2;SDS_P1;SDS_P2;PMS_P1;PMS_P2;Temp;Humidity;BMP_temperature;BMP_pressure;BME280_temperature;BME280_humidity;BME280_pressure;Samples;Min_cycle;Max_cycle;Signal;HPM_P1;HPM_P2
2021/12/29 00:01:09;;;;;;;44.33;22.20;;;;;;;1.57;100.00;98999.94;7404081;19;20399;-53
2021/12/29 00:03:39;;;;;;;49.33;22.33;;;;;;;1.54;100.00;98999.81;7393882;19;20444;-51
2021/12/29 00:06:11;;;;;;;46.28;21.45;;;;;;;1.53;100.00;99004.00;7403120;19;20704;-55
2021/12/29 00:08:40;;;;;;;49.83;23.03;;;;;;;1.55;100.00;99004.97;7395411;19;20568;-54
2021/12/29 00:11:10;;;;;;;74.27;31.43;;;;;;;1.52;100.00;99016.63;7403803;19;20449;-53
2021/12/29 00:13:39;;;;;;;72.50;31.30;;;;;;;1.53;100.00;99026.03;7395852;19;20419;-52
2021/12/29 00:16:09;;;;;;;55.37;27.07;;;;;;;1.53;100.00;99031.13;7398935;19;20460;-52
2021/12/29 00:18:38;;;;;;;82.53;34.10;;;;;;;1.54;100.00;99027.78;7396236;19;20448;-55
2021/12/29 00:21:10;;;;;;;60.43;28.03;;;;;;;1.53;100.00;99028.56;7399260;19;20376;-52
2021/12/29 00:23:40;;;;;;;63.23;28.60;;;;;;;1.55;100.00;99032.94;7396182;19;21052;-58
2021/12/29 00:26:26;;;;;;;54.30;24.00;;;;;;;1.55;100.00;99037.13;7398872;19;20416;-58
2021/12/29 00:28:58;;;;;;;47.97;21.95;;;;;;;1.51;100.00;99046.28;7395302;19;20399;-57
2021/12/29 00:31:28;;;;;;;44.13;20.98;;;;;;;1.47;100.00;99037.63;7398985;19;20178;-57
2021/12/29 00:33:57;;;;;;;45.57;21.83;;;;;;;1.46;100.00;99046.06;7394601;19;20238;-57
2021/12/29 00:36:29;;;;;;;49.30;22.17;;;;;;;1.45;100.00;99045.97;7398402;19;20391;-50
2021/12/29 00:38:59;;;;;;;48.60;20.80;;;;;;;1.44;100.00;99054.41;7395681;19;20683;-51
2021/12/29 00:41:28;;;;;;;49.30;21.07;;;;;;;1.50;100.00;99051.28;7398656;19;20377;-56
2021/12/29 00:43:58;;;;;;;51.30;23.27;;;;;;;1.54;100.00;99058.28;7394422;19;20502;-55
2021/12/29 00:46:34;;;;;;;47.80;21.00;;;;;;;1.51;100.00;99056.44;7398185;19;20392;-53
2021/12/29 00:49:04;;;;;;;53.67;21.97;;;;;;;1.53;100.00;99064.16;7394513;19;20651;-54
2021/12/29 00:51:36;;;;;;;51.67;22.13;;;;;;;1.51;100.00;99071.69;7398384;19;20384;-58
2021/12/29 00:54:06;;;;;;;42.60;21.00;;;;;;;1.50;100.00;99081.78;7396808;19;20889;-54
2021/12/29 00:56:37;;;;;;;46.73;21.53;;;;;;;1.56;100.00;99084.66;7397743;19;20388;-54
2021/12/29 00:59:07;;;;;;;47.53;22.60;;;;;;;1.54;100.00;99092.19;7394497;19;20407;-52
2021/12/29 01:01:36;;;;;;;41.70;20.83;;;;;;;1.47;100.00;99093.56;7399627;19;20401;-56
2021/12/29 01:04:06;;;;;;;45.17;22.00;;;;;;;1.43;100.00;99091.63;7401322;19;20470;-50
2021/12/29 01:06:38;;;;;;;49.57;22.00;;;;;;;1.41;100.00;99105.06;7405078;19;20399;-55
2021/12/29 01:09:07;;;;;;;46.10;21.77;;;;;;;1.55;100.00;99118.50;7399166;19;20425;-53
2021/12/29 01:11:37;;;;;;;47.97;21.10;;;;;;;1.57;100.00;99133.03;7405528;19;20182;-55
2021/12/29 01:14:08;;;;;;;60.23;28.30;;;;;;;1.61;100.00;99124.78;7402075;19;20241;-54
2021/12/29 01:16:39;;;;;;;96.60;40.57;;;;;;;1.73;100.00;99114.34;7404942;19;20670;-51
2021/12/29 01:19:13;;;;;;;56.37;23.80;;;;;;;1.71;100.00;99123.59;7402016;19;20411;-53
2021/12/29 01:21:47;;;;;;;53.63;22.42;;;;;;;1.58;100.00;99128.81;7405160;19;20468;-54
2021/12/29 01:24:18;;;;;;;52.93;21.87;;;;;;;1.61;100.00;99139.16;7400776;19;20182;-51
2021/12/29 01:26:48;;;;;;;63.27;25.17;;;;;;;1.83;100.00;99145.31;7404288;19;20387;-52
2021/12/29 01:29:17;;;;;;;56.70;24.60;;;;;;;1.95;100.00;99155.25;7401490;19;20419;-56
2021/12/29 01:31:47;;;;;;;61.37;24.57;;;;;;;1.98;100.00;99169.00;7404698;19;20396;-56
2021/12/29 01:34:17;;;;;;;65.22;24.77;;;;;;;1.80;100.00;99170.63;7401291;19;20415;-56
2021/12/29 01:36:49;;;;;;;53.67;24.43;;;;;;;1.64;100.00;99179.97;7403871;19;20123;-54
2021/12/29 01:39:21;;;;;;;53.72;23.52;;;;;;;1.80;100.00;99178.25;7398729;19;20695;-53
2021/12/29 01:41:54;;;;;;;57.80;25.70;;;;;;;1.70;100.00;99180.28;7404552;19;20131;-52
2021/12/29 01:44:26;;;;;;;68.47;27.65;;;;;;;1.58;100.00;99185.63;7398984;19;20472;-54
2021/12/29 01:46:57;;;;;;;58.20;25.33;;;;;;;1.50;100.00;99180.94;7400326;19;20926;-50
2021/12/29 01:49:27;;;;;;;68.73;25.93;;;;;;;1.46;100.00;99169.72;7397162;19;20411;-55
2021/12/29 01:52:09;;;;;;;73.07;27.50;;;;;;;1.40;100.00;99183.00;7401186;19;20392;-57
2021/12/29 01:54:39;;;;;;;75.47;26.73;;;;;;;1.32;100.00;99177.50;7397152;19;20406;-57
2021/12/29 01:57:11;;;;;;;70.40;27.15;;;;;;;1.29;100.00;99184.09;7403847;19;20443;-52
2021/12/29 01:59:41;;;;;;;71.17;26.53;;;;;;;1.32;100.00;99186.78;7397188;19;20194;-55
2021/12/29 02:02:14;;;;;;;69.15;28.27;;;;;;;1.34;100.00;99195.38;7401769;19;20402;-54
2021/12/29 02:04:44;;;;;;;66.75;28.42;;;;;;;1.31;100.00;99197.75;7396848;19;20584;-48
2021/12/29 02:07:17;;;;;;;67.80;27.02;;;;;;;1.25;100.00;99194.88;7399885;19;20171;-48
2021/12/29 02:09:46;;;;;;;66.68;28.05;;;;;;;1.26;100.00;99196.59;7396270;19;20205;-57
2021/12/29 02:12:16;;;;;;;73.00;28.97;;;;;;;1.25;100.00;99197.41;7402825;19;20138;-47
2021/12/29 02:14:46;;;;;;;70.97;28.17;;;;;;;1.24;100.00;99199.09;7394970;19;20419;-54
2021/12/29 02:17:16;;;;;;;72.72;28.05;;;;;;;1.27;100.00;99203.47;7400580;19;20864;-54
2021/12/29 02:19:47;;;;;;;68.03;26.70;;;;;;;1.25;100.00;99210.13;7397282;19;20254;-52
2021/12/29 02:22:34;;;;;;;66.60;28.27;;;;;;;1.23;100.00;99209.16;7401827;19;20140;-52
2021/12/29 02:27:48;;;;;;;66.90;26.97;;;;;;;1.19;100.00;99220.84;7399748;19;20261;-56
2021/12/29 02:30:20;;;;;;;82.73;27.40;;;;;;;1.15;100.00;99226.53;7402770;19;20406;-52
2021/12/29 02:32:54;;;;;;;65.80;27.90;;;;;;;1.16;100.00;99226.63;7398009;19;20426;-55
2021/12/29 02:35:25;;;;;;;74.80;28.17;;;;;;;1.16;100.00;99226.63;7400744;19;20400;-56
2021/12/29 02:37:58;;;;;;;73.47;30.05;;;;;;;1.16;100.00;99236.78;7396869;19;20480;-56
2021/12/29 02:40:31;;;;;;;73.88;28.25;;;;;;;1.14;100.00;99235.84;7401464;19;20122;-52
2021/12/29 02:43:00;;;;;;;79.57;29.48;;;;;;;1.14;100.00;99243.47;7396160;19;20282;-54
2021/12/29 02:45:33;;;;;;;74.90;28.47;;;;;;;1.16;100.00;99249.47;7399687;19;20125;-53
2021/12/29 02:48:03;;;;;;;73.57;27.80;;;;;;;1.14;100.00;99253.63;7397106;19;20403;-51
2021/12/29 02:50:34;;;;;;;60.80;25.00;;;;;;;1.14;100.00;99258.69;7402106;19;20131;-52
2021/12/29 02:53:06;;;;;;;76.28;26.70;;;;;;;1.11;100.00;99272.88;7398870;19;20199;-56
2021/12/29 02:55:36;;;;;;;72.72;28.25;;;;;;;1.10;100.00;99282.16;7401160;19;20137;-56
2021/12/29 03:00:47;;;;;;;67.50;28.48;;;;;;;1.19;100.00;99280.13;7401316;19;20156;-51
2021/12/29 03:03:18;;;;;;;73.80;28.50;;;;;;;1.18;100.00;99278.38;7398658;19;20182;-54
2021/12/29 03:05:48;;;;;;;77.43;28.33;;;;;;;1.19;100.00;99282.66;7400056;19;20125;-53
2021/12/29 03:08:21;;;;;;;75.55;27.55;;;;;;;1.19;100.00;99287.75;7398244;19;20190;-55
2021/12/29 03:10:53;;;;;;;72.30;29.27;;;;;;;1.23;100.00;99277.78;7401852;19;20122;-55
2021/12/29 03:13:23;;;;;;;68.82;27.73;;;;;;;1.19;100.00;99272.50;7397257;19;20190;-54
2021/12/29 03:15:53;;;;;;;67.78;27.40;;;;;;;1.14;100.00;99284.09;7400766;19;20123;-52
2021/12/29 03:18:23;;;;;;;69.20;27.88;;;;;;;1.11;100.00;99299.16;7397423;19;20213;-54
2021/12/29 03:20:53;;;;;;;82.00;29.42;;;;;;;1.00;100.00;99310.38;7401716;19;20191;-49
2021/12/29 03:23:25;;;;;;;87.90;29.50;;;;;;;0.97;100.00;99316.16;7397501;19;20257;-55
2021/12/29 03:25:55;;;;;;;91.38;31.63;;;;;;;0.99;100.00;99319.69;7399585;19;20380;-56
2021/12/29 03:28:26;;;;;;;78.70;30.60;;;;;;;1.09;100.00;99326.16;7394359;19;20263;-53
2021/12/29 03:30:56;;;;;;;96.45;31.10;;;;;;;1.03;100.00;99330.88;7400667;19;20521;-52
2021/12/29 03:33:28;;;;;;;83.07;29.08;;;;;;;1.20;100.00;99330.19;7396701;19;20193;-52
2021/12/29 03:36:01;;;;;;;80.20;29.85;;;;;;;1.06;100.00;99331.94;7400181;19;20119;-51
2021/12/29 03:38:36;;;;;;;90.22;31.85;;;;;;;1.01;100.00;99335.88;7396977;19;20506;-55
2021/12/29 03:41:07;;;;;;;73.78;28.70;;;;;;;1.06;100.00;99341.22;7401017;19;20383;-54
2021/12/29 03:43:37;;;;;;;75.40;28.38;;;;;;;1.13;100.00;99330.59;7396634;19;20253;-51
2021/12/29 03:46:08;;;;;;;80.90;30.85;;;;;;;1.15;100.00;99336.66;7399112;19;20142;-56
2021/12/29 03:48:39;;;;;;;83.63;32.30;;;;;;;1.04;100.00;99343.66;7395573;19;20190;-56
2021/12/29 03:51:10;;;;;;;100.10;35.75;;;;;;;1.01;100.00;99343.50;7400666;19;20127;-54
2021/12/29 03:53:42;;;;;;;110.20;38.75;;;;;;;1.08;100.00;99345.59;7397936;19;20186;-52
2021/12/29 03:56:12;;;;;;;138.48;50.78;;;;;;;1.26;100.00;99354.16;7399826;19;20178;-54
2021/12/29 03:58:44;;;;;;;89.60;34.83;;;;;;;1.28;100.00;99345.00;7397107;19;20250;-54
2021/12/29 04:01:15;;;;;;;77.57;30.50;;;;;;;1.23;100.00;99354.00;7400182;19;20124;-50
2021/12/29 04:03:46;;;;;;;91.43;33.70;;;;;;;1.34;100.00;99350.41;7394438;19;20431;-51
2021/12/29 04:06:18;;;;;;;84.38;31.45;;;;;;;1.42;100.00;99350.81;7398769;19;20115;-53
2021/12/29 04:08:51;;;;;;;104.50;36.77;;;;;;;1.50;100.00;99354.69;7394795;19;20543;-57
2021/12/29 04:11:21;;;;;;;92.80;32.72;;;;;;;1.46;100.00;99348.56;7404597;19;20400;-55
2021/12/29 04:13:50;;;;;;;79.30;31.67;;;;;;;1.40;100.00;99352.41;7396172;19;20210;-55
2021/12/29 04:16:20;;;;;;;93.40;34.30;;;;;;;1.54;100.00;99355.72;7399208;19;20126;-56
2021/12/29 04:19:06;;;;;;;81.93;31.30;;;;;;;1.53;100.00;99341.28;7393390;19;20478;-52
2021/12/29 04:21:35;;;;;;;80.13;30.23;;;;;;;1.63;100.00;99340.13;7399696;19;20126;-50
2021/12/29 04:24:08;;;;;;;90.53;30.08;;;;;;;1.69;100.00;99351.47;7396027;19;20270;-50
2021/12/29 04:26:39;;;;;;;76.18;29.30;;;;;;;1.54;100.00;99359.13;7398049;19;20122;-50
2021/12/29 04:29:13;;;;;;;82.80;31.13;;;;;;;1.42;100.00;99371.16;7395956;19;20188;-51
2021/12/29 04:31:43;;;;;;;73.72;27.90;;;;;;;1.34;100.00;99381.78;7401883;19;20118;-57
2021/12/29 04:34:13;;;;;;;78.63;29.77;;;;;;;1.33;100.00;99384.25;7395043;19;20254;-54
2021/12/29 04:36:42;;;;;;;74.78;29.52;;;;;;;1.24;100.00;99387.13;7397345;19;20127;-51
2021/12/29 04:39:14;;;;;;;75.38;28.33;;;;;;;1.23;100.00;99399.75;7395658;19;20186;-55
2021/12/29 04:41:44;;;;;;;64.68;27.17;;;;;;;1.15;100.00;99417.97;7398915;19;20123;-52
2021/12/29 04:44:14;;;;;;;67.00;28.80;;;;;;;1.13;100.00;99417.00;7395356;19;20570;-52
2021/12/29 04:46:46;;;;;;;63.92;27.83;;;;;;;1.10;100.00;99434.63;7398092;19;20195;-56
2021/12/29 04:49:22;;;;;;;72.97;27.40;;;;;;;1.14;100.00;99440.75;7395380;19;20254;-53
2021/12/29 04:51:56;;;;;;;74.75;28.48;;;;;;;1.25;100.00;99439.72;7398638;19;20647;-52
2021/12/29 04:54:28;;;;;;;73.32;27.67;;;;;;;1.31;100.00;99442.63;7394252;19;20186;-50
2021/12/29 04:56:58;;;;;;;68.97;28.70;;;;;;;1.28;100.00;99439.88;7397967;19;20123;-52
2021/12/29 04:59:30;;;;;;;72.07;28.87;;;;;;;1.19;100.00;99439.34;7395086;19;20414;-54
2021/12/29 05:01:59;;;;;;;78.13;31.70;;;;;;;1.15;100.00;99433.22;7398437;19;20392;-53
2021/12/29 05:04:34;;;;;;;72.35;28.92;;;;;;;1.16;100.00;99444.25;7392063;19;20415;-54
2021/12/29 05:09:49;;;;;;;75.82;29.02;;;;;;;1.27;100.00;99447.44;7391176;19;20577;-49
2021/12/29 05:12:18;;;;;;;69.82;28.17;;;;;;;1.26;100.00;99444.00;7398437;19;20191;-55
2021/12/29 05:14:48;;;;;;;71.53;29.88;;;;;;;1.28;100.00;99444.97;7394854;19;20195;-53
2021/12/29 05:17:17;;;;;;;71.30;27.38;;;;;;;1.28;100.00;99439.03;7397222;19;20545;-52
2021/12/29 05:19:47;;;;;;;68.87;26.70;;;;;;;1.26;100.00;99441.47;7393491;19;20186;-53
2021/12/29 05:22:16;;;;;;;61.42;26.15;;;;;;;1.29;100.00;99450.94;7398004;19;20386;-52
2021/12/29 05:24:45;;;;;;;69.72;27.08;;;;;;;1.25;100.00;99454.97;7393278;19;20194;-54
2021/12/29 05:27:18;;;;;;;66.25;26.80;;;;;;;1.20;100.00;99454.69;7395770;19;20175;-54
2021/12/29 05:29:47;;;;;;;68.35;26.85;;;;;;;1.18;100.00;99456.25;7394059;19;20250;-55
2021/12/29 05:32:17;;;;;;;70.85;28.25;;;;;;;1.21;100.00;99453.91;7397862;19;20127;-53
2021/12/29 05:34:46;;;;;;;69.97;28.60;;;;;;;1.20;100.00;99467.41;7394197;19;20640;-52
2021/12/29 05:37:16;;;;;;;64.15;26.80;;;;;;;1.20;100.00;99472.50;7396512;19;20479;-51
2021/12/29 05:39:45;;;;;;;72.43;27.98;;;;;;;1.12;100.00;99483.84;7391970;19;20186;-52
2021/12/29 05:42:17;;;;;;;65.90;27.63;;;;;;;1.09;100.00;99478.59;7397579;19;20123;-52
2021/12/29 05:44:47;;;;;;;66.25;28.20;;;;;;;1.16;100.00;99479.81;7395959;19;20511;-51
2021/12/29 05:47:17;;;;;;;69.38;28.05;;;;;;;1.24;100.00;99487.91;7395164;19;20164;-55
2021/12/29 05:49:46;;;;;;;61.95;26.23;;;;;;;1.27;100.00;99480.47;7398628;19;20246;-51
2021/12/29 05:52:16;;;;;;;61.92;26.30;;;;;;;1.24;100.00;99492.97;7404613;19;20133;-53
2021/12/29 05:54:46;;;;;;;61.78;26.27;;;;;;;1.21;100.00;99498.75;7398215;19;20585;-56
2021/12/29 05:57:18;;;;;;;83.00;31.90;;;;;;;1.31;100.00;99500.19;7403130;19;20155;-54
2021/12/29 05:59:48;;;;;;;77.82;30.08;;;;;;;1.31;100.00;99505.25;7400136;19;20190;-57
2021/12/29 06:02:17;;;;;;;69.95;28.23;;;;;;;1.34;100.00;99502.91;7403976;19;20183;-49
2021/12/29 06:04:47;;;;;;;72.00;29.20;;;;;;;1.46;100.00;99506.19;7404857;19;20620;-52
2021/12/29 06:07:16;;;;;;;74.25;30.85;;;;;;;1.43;100.00;99512.75;7401976;19;20589;-53
2021/12/29 06:09:46;;;;;;;73.68;28.60;;;;;;;1.41;100.00;99521.94;7403039;19;20192;-54
2021/12/29 06:12:18;;;;;;;76.47;28.57;;;;;;;1.27;100.00;99516.91;7403737;19;20176;-52
2021/12/29 06:14:47;;;;;;;71.13;28.85;;;;;;;1.27;100.00;99518.59;7398804;19;20754;-54
2021/12/29 06:17:17;;;;;;;67.05;28.20;;;;;;;1.31;100.00;99523.94;7402640;19;20466;-55
2021/12/29 06:19:46;;;;;;;77.82;29.20;;;;;;;1.33;100.00;99524.91;7399908;19;20209;-51
2021/12/29 06:22:16;;;;;;;71.15;27.77;;;;;;;1.23;100.00;99537.84;7403448;19;20127;-56
2021/12/29 06:24:51;;;;;;;65.35;28.52;;;;;;;1.21;100.00;99535.22;7398362;19;20187;-54
2021/12/29 06:27:25;;;;;;;69.32;28.10;;;;;;;1.26;100.00;99547.31;7401587;19;20161;-51
2021/12/29 06:29:55;;;;;;;64.07;26.40;;;;;;;1.20;100.00;99548.72;7402371;19;20172;-51
2021/12/29 06:32:25;;;;;;;69.23;27.87;;;;;;;1.24;100.00;99548.91;7400571;19;20395;-55
2021/12/29 06:34:55;;;;;;;58.70;26.10;;;;;;;1.37;100.00;99548.84;7405791;19;20417;-54
2021/12/29 06:37:25;;;;;;;63.22;26.92;;;;;;;1.41;100.00;99553.31;7401355;19;20181;-51
2021/12/29 06:39:54;;;;;;;69.95;27.77;;;;;;;1.40;100.00;99560.84;7402127;19;20134;-52
2021/12/29 06:42:26;;;;;;;71.97;29.00;;;;;;;1.43;100.00;99551.75;7399393;19;20142;-55
2021/12/29 06:44:57;;;;;;;72.43;29.40;;;;;;;1.54;100.00;99559.13;7402536;19;20115;-51
2021/12/29 06:47:27;;;;;;;183.38;72.47;;;;;;;1.51;100.00;99552.19;7398142;19;20433;-54
2021/12/29 06:49:57;;;;;;;70.87;31.10;;;;;;;1.56;100.00;99557.53;7401985;19;20119;-54
2021/12/29 06:52:26;;;;;;;77.47;33.63;;;;;;;1.92;100.00;99557.03;7397338;19;20380;-53
2021/12/29 06:54:56;;;;;;;73.80;30.63;;;;;;;1.98;100.00;99562.47;7402036;19;20643;-54
2021/12/29 06:57:28;;;;;;;79.67;29.67;;;;;;;1.57;100.00;99572.00;7400056;19;20423;-52
2021/12/29 06:59:57;;;;;;;68.72;29.30;;;;;;;1.42;100.00;99580.50;7400926;19;20671;-55
2021/12/29 07:02:27;;;;;;;72.33;29.10;;;;;;;1.42;100.00;99580.50;7398895;19;20450;-54
2021/12/29 07:04:56;;;;;;;83.37;29.70;;;;;;;1.70;100.00;99587.19;7401671;19;20406;-56
2021/12/29 07:07:26;;;;;;;69.53;29.87;;;;;;;1.91;100.00;99591.81;7396771;19;20438;-49
2021/12/29 07:09:55;;;;;;;68.40;29.70;;;;;;;2.02;100.00;99603.44;7401000;19;20381;-51
2021/12/29 07:12:27;;;;;;;60.97;27.10;;;;;;;2.20;100.00;99599.34;7398653;19;20392;-53
2021/12/29 07:14:57;;;;;;;63.30;28.00;;;;;;;2.42;100.00;99612.47;7401185;19;20402;-51
2021/12/29 07:17:26;;;;;;;60.30;25.67;;;;;;;2.00;100.00;99633.03;7397468;19;20463;-56
2021/12/29 07:19:56;;;;;;;67.67;28.30;;;;;;;2.20;100.00;99633.28;7400933;19;20845;-51
2021/12/29 07:22:25;;;;;;;64.20;26.40;;;;;;;2.27;100.00;99645.59;7398827;19;20390;-53
2021/12/29 07:24:55;;;;;;;65.87;29.60;;;;;;;1.91;100.00;99652.84;7400847;19;20392;-53
2021/12/29 07:27:24;;;;;;;69.50;29.13;;;;;;;1.71;100.00;99665.28;7395894;19;20437;-53
2021/12/29 07:29:56;;;;;;;63.67;26.57;;;;;;;1.62;100.00;99674.88;7400387;19;20694;-54
2021/12/29 07:32:27;;;;;;;70.40;30.20;;;;;;;1.64;100.00;99682.59;7398043;19;20379;-52
2021/12/29 07:34:56;;;;;;;73.30;29.23;;;;;;;1.71;100.00;99685.63;7400709;19;20384;-52
2021/12/29 07:37:26;;;;;;;67.60;27.80;;;;;;;1.57;100.00;99681.34;7396236;19;20487;-54
2021/12/29 07:39:55;;;;;;;61.90;27.98;;;;;;;1.72;100.00;99691.56;7399994;19;20455;-53
2021/12/29 07:42:25;;;;;;;63.00;28.53;;;;;;;2.22;100.00;99692.81;7395922;19;20124;-52
2021/12/29 07:44:57;;;;;;;72.37;28.07;;;;;;;1.83;100.00;99702.38;7400167;19;20849;-56
2021/12/29 07:47:26;;;;;;;63.13;26.73;;;;;;;1.56;100.00;99711.00;7399646;19;20436;-51
2021/12/29 07:49:56;;;;;;;61.50;27.30;;;;;;;1.41;100.00;99716.03;7399977;19;20387;-53
2021/12/29 07:52:26;;;;;;;65.30;27.73;;;;;;;1.37;100.00;99729.31;7396974;19;20906;-50
2021/12/29 07:54:55;;;;;;;58.53;25.67;;;;;;;1.27;100.00;99732.09;7399897;19;20123;-52
2021/12/29 07:57:24;;;;;;;75.13;29.60;;;;;;;1.34;100.00;99734.22;7394939;19;20479;-51
2021/12/29 07:59:57;;;;;;;73.07;29.52;;;;;;;1.37;100.00;99738.63;7400619;19;20457;-55
2021/12/29 08:02:27;;;;;;;80.20;29.27;;;;;;;1.45;100.00;99743.38;7397121;19;20142;-52
2021/12/29 08:04:58;;;;;;;85.07;31.17;;;;;;;1.53;100.00;99743.84;7399472;19;20864;-54
2021/12/29 08:07:45;;;;;;;77.07;30.23;;;;;;;1.51;100.00;99747.97;7397439;19;20214;-53
2021/12/29 08:10:15;;;;;;;77.73;29.63;;;;;;;1.55;100.00;99743.97;7399631;19;20372;-50
2021/12/29 08:12:45;;;;;;;83.82;30.25;;;;;;;1.46;100.00;99752.78;7394436;19;20479;-52
2021/12/29 08:15:17;;;;;;;82.67;31.43;;;;;;;1.42;100.00;99748.28;7399748;19;20125;-51
2021/12/29 08:17:51;;;;;;;76.57;30.23;;;;;;;1.39;100.00;99758.25;7395426;19;20423;-53
2021/12/29 08:20:21;;;;;;;84.82;30.42;;;;;;;1.31;100.00;99764.50;7399791;19;20452;-54
2021/12/29 08:22:52;;;;;;;79.80;30.40;;;;;;;1.34;100.00;99762.19;7396104;19;20196;-52
2021/12/29 08:25:21;;;;;;;87.68;31.85;;;;;;;1.38;100.00;99761.56;7398925;19;20171;-52
2021/12/29 08:27:51;;;;;;;80.68;31.00;;;;;;;1.39;100.00;99758.25;7393403;19;20262;-55
2021/12/29 08:30:23;;;;;;;77.37;31.37;;;;;;;1.36;100.00;99763.16;7399546;19;20124;-51
2021/12/29 08:32:53;;;;;;;84.93;30.80;;;;;;;1.34;100.00;99754.56;7395971;19;20436;-55
2021/12/29 08:35:22;;;;;;;86.30;30.83;;;;;;;1.35;100.00;99756.31;7398908;19;20477;-55
2021/12/29 08:37:53;;;;;;;71.43;29.50;;;;;;;1.51;100.00;99758.13;7396959;19;20399;-51
2021/12/29 08:40:22;;;;;;;74.13;27.30;;;;;;;1.95;100.00;99755.69;7400984;19;20463;-53
2021/12/29 08:42:54;;;;;;;80.00;30.90;;;;;;;1.98;100.00;99744.03;7396610;19;20480;-52
2021/12/29 08:45:27;;;;;;;81.45;31.35;;;;;;;1.77;100.00;99745.25;7401535;19;20404;-54
2021/12/29 08:47:58;;;;;;;170.90;78.27;;;;;;;1.51;100.00;99747.97;7394335;19;20196;-52
2021/12/29 08:50:29;;;;;;;81.00;30.50;;;;;;;1.53;100.00;99758.25;7398767;19;20439;-50
2021/12/29 08:52:59;;;;;;;82.97;31.35;;;;;;;1.37;100.00;99754.72;7395193;19;20824;-51
2021/12/29 08:55:29;;;;;;;76.82;30.75;;;;;;;1.48;100.00;99753.75;7397924;19;20123;-52
2021/12/29 08:57:58;;;;;;;74.70;30.67;;;;;;;1.74;100.00;99762.09;7393146;19;20194;-53
2021/12/29 09:00:31;;;;;;;80.75;31.45;;;;;;;1.62;100.00;99768.97;7398544;19;20750;-51
2021/12/29 09:03:01;;;;;;;75.60;29.77;;;;;;;1.91;100.00;99758.81;7397312;19;20186;-51
2021/12/29 09:05:31;;;;;;;80.47;30.03;;;;;;;1.82;100.00;99756.59;7397793;19;20130;-54
2021/12/29 09:08:01;;;;;;;74.50;30.37;;;;;;;1.81;100.00;99768.44;7393792;19;20411;-50
2021/12/29 09:10:30;;;;;;;79.83;31.70;;;;;;;1.57;100.00;99780.50;7400361;19;20428;-57
2021/12/29 09:13:00;;;;;;;68.20;28.93;;;;;;;1.48;100.00;99781.72;7393392;19;20442;-53
2021/12/29 09:15:32;;;;;;;80.70;31.77;;;;;;;1.44;100.00;99782.28;7397477;19;20404;-55
2021/12/29 09:18:02;;;;;;;77.63;31.03;;;;;;;1.43;100.00;99790.72;7393686;19;20693;-50
2021/12/29 09:20:33;;;;;;;81.87;32.03;;;;;;;1.43;100.00;99792.38;7398391;19;20468;-54
2021/12/29 09:23:05;;;;;;;76.90;28.85;;;;;;;1.33;100.00;99801.09;7397190;19;20379;-55
2021/12/29 09:25:40;;;;;;;85.43;33.05;;;;;;;1.43;100.00;99795.78;7404643;19;20127;-55
2021/12/29 09:28:11;;;;;;;80.67;32.40;;;;;;;1.35;100.00;99805.47;7399957;19;20186;-52
2021/12/29 09:30:46;;;;;;;104.77;38.67;;;;;;;1.35;100.00;99812.22;7405052;19;20395;-53
2021/12/29 09:33:19;;;;;;;68.72;27.60;;;;;;;1.34;100.00;99820.66;7401838;19;20878;-57
2021/12/29 09:35:49;;;;;;;71.85;29.30;;;;;;;1.28;100.00;99815.16;7404243;19;20127;-56
2021/12/29 09:38:19;;;;;;;76.65;30.15;;;;;;;1.34;100.00;99820.66;7400771;19;20465;-52
2021/12/29 09:40:50;;;;;;;86.43;31.27;;;;;;;1.37;100.00;99813.19;7404420;19;20138;-51
2021/12/29 09:43:20;;;;;;;63.33;28.80;;;;;;;1.35;100.00;99817.31;7401451;19;20464;-53
2021/12/29 09:45:52;;;;;;;86.40;31.20;;;;;;;1.56;100.00;99822.00;7403804;19;20134;-50
2021/12/29 09:48:22;;;;;;;79.03;30.70;;;;;;;1.52;100.00;99832.75;7397603;19;20205;-53
2021/12/29 09:50:52;;;;;;;75.07;30.93;;;;;;;1.59;100.00;99822.19;7404736;19;20375;-51
2021/12/29 09:53:22;;;;;;;80.63;31.30;;;;;;;1.48;100.00;99813.88;7399997;19;20425;-52
2021/12/29 09:55:52;;;;;;;74.57;28.88;;;;;;;1.50;100.00;99814.88;7403107;19;20120;-54
2021/12/29 09:58:22;;;;;;;83.13;34.13;;;;;;;1.48;100.00;99814.75;7399026;19;20205;-52
2021/12/29 10:00:56;;;;;;;89.80;33.88;;;;;;;1.54;100.00;99810.84;7405002;19;20193;-52
2021/12/29 10:03:28;;;;;;;124.25;41.55;;;;;;;1.51;100.00;99813.19;7397180;19;20190;-48
2021/12/29 10:06:01;;;;;;;92.65;32.97;;;;;;;1.52;100.00;99807.31;7403163;19;20119;-55
2021/12/29 10:08:32;;;;;;;98.87;34.80;;;;;;;1.62;100.00;99812.22;7398829;19;20190;-54
2021/12/29 10:11:05;;;;;;;106.73;36.53;;;;;;;1.74;100.00;99810.44;7404015;19;20379;-53
2021/12/29 10:13:41;;;;;;;83.78;32.75;;;;;;;1.96;100.00;99813.41;7402289;19;20412;-55
2021/12/29 10:16:16;;;;;;;72.10;29.38;;;;;;;1.81;100.00;99833.69;7402872;19;20147;-53
2021/12/29 10:18:48;;;;;;;82.80;30.77;;;;;;;1.74;100.00;99832.44;7396860;19;20195;-53
2021/12/29 10:21:22;;;;;;;67.07;28.05;;;;;;;1.63;100.00;99833.44;7403468;19;20517;-51
2021/12/29 10:23:53;;;;;;;78.88;30.45;;;;;;;1.62;100.00;99837.63;7399715;19;20579;-50
2021/12/29 10:26:41;;;;;;;134.65;41.42;;;;;;;1.79;100.00;99855.63;7402662;19;20517;-54
2021/12/29 10:29:13;;;;;;;78.63;29.27;;;;;;;1.88;100.00;99856.19;7399103;19;20193;-53
2021/12/29 10:31:47;;;;;;;89.03;33.92;;;;;;;2.05;100.00;99864.00;7403384;19;20123;-55
2021/12/29 10:34:20;;;;;;;76.00;31.67;;;;;;;1.98;100.00;99867.81;7397939;19;20606;-55
2021/12/29 10:36:53;;;;;;;96.50;33.10;;;;;;;1.89;100.00;99868.13;7403103;19;20816;-50
2021/12/29 10:39:25;;;;;;;94.65;33.60;;;;;;;1.93;100.00;99848.84;7401313;19;20449;-51
2021/12/29 10:41:58;;;;;;;82.17;31.07;;;;;;;2.13;100.00;99837.34;7402561;19;20511;-57
2021/12/29 10:44:30;;;;;;;75.15;30.42;;;;;;;2.27;100.00;99838.19;7401235;19;20451;-58
2021/12/29 10:47:04;;;;;;;76.23;30.07;;;;;;;2.10;100.00;99855.00;7401939;19;20445;-58
2021/12/29 10:49:34;;;;;;;76.30;30.03;;;;;;;1.94;100.00;99855.72;7396992;19;20463;-54
2021/12/29 10:52:03;;;;;;;82.90;30.20;;;;;;;1.98;100.00;99860.19;7402415;19;20378;-57
2021/12/29 10:54:33;;;;;;;89.03;33.30;;;;;;;1.89;100.00;99869.00;7397754;19;20466;-56
2021/12/29 10:57:06;;;;;;;76.40;31.00;;;;;;;1.95;100.00;99865.97;7401348;19;20419;-54
2021/12/29 10:59:41;;;;;;;90.60;34.50;;;;;;;2.06;100.00;99856.47;7398906;19;20411;-56
2021/12/29 11:02:13;;;;;;;142.90;45.47;;;;;;;2.21;100.00;99840.38;7405755;19;20376;-58
2021/12/29 11:04:43;;;;;;;192.87;56.60;;;;;;;2.31;100.00;99846.88;7398458;19;20439;-54
2021/12/29 11:07:14;;;;;;;75.57;30.33;;;;;;;2.51;100.00;99836.22;7401004;19;20410;-52
2021/12/29 11:09:43;;;;;;;78.20;30.73;;;;;;;2.51;100.00;99837.91;7397381;19;20435;-52
2021/12/29 11:12:16;;;;;;;238.93;69.53;;;;;;;2.58;100.00;99831.50;7401630;19;20717;-54
2021/12/29 11:14:45;;;;;;;75.77;30.37;;;;;;;2.57;100.00;99845.91;7398195;19;20497;-51
2021/12/29 11:17:23;;;;;;;70.27;29.03;;;;;;;2.54;100.00;99844.06;7400615;19;20704;-55
2021/12/29 11:19:56;;;;;;;69.30;30.00;;;;;;;2.31;100.00;99842.69;7401319;19;20505;-56
2021/12/29 11:22:28;;;;;;;82.47;32.13;;;;;;;2.29;100.00;99831.50;7393622;19;20378;-55
2021/12/29 11:24:59;;;;;;;81.07;30.77;;;;;;;2.32;100.00;99838.47;7397867;19;20395;-48
2021/12/29 11:27:32;;;;;;;77.83;28.97;;;;;;;2.16;100.00;99847.72;7394199;19;20491;-53
2021/12/29 11:30:03;;;;;;;65.33;28.10;;;;;;;2.11;100.00;99859.28;7397255;19;20391;-51
2021/12/29 11:32:37;;;;;;;68.53;27.90;;;;;;;2.15;100.00;99856.13;7393843;19;20444;-50
2021/12/29 11:35:10;;;;;;;74.50;30.30;;;;;;;2.35;100.00;99857.34;7398092;19;21145;-55
2021/12/29 11:37:41;;;;;;;77.93;30.80;;;;;;;2.41;100.00;99860.25;7398268;19;20434;-53
2021/12/29 11:40:13;;;;;;;78.30;31.17;;;;;;;2.28;100.00;99857.75;7397831;19;20906;-57
2021/12/29 11:42:48;;;;;;;73.27;30.90;;;;;;;2.55;100.00;99858.53;7394359;19;20438;-52